Time;durP1;ratioP1;P1;durP2;ratioP2;P2;SDS_P1;SDS_P2;PMS_P1;PMS_P2;Temp;Humidity;BMP_temperature;BMP_pressure;BME280_temperature;BME280_humidity;BME280_pressure;Samples;Min_cycle;Max_cycle;Signal;HPM_P1;HPM_P2
2023/03/23 00:02:25;;;;;;;8.88;6.15;;;;;;;;;;5014971;28;20046;-75
2023/03/23 00:04:53;;;;;;;9.65;6.80;;;;;;;;;;5021855;28;20049;-75
2023/03/23 00:07:21;;;;;;;11.30;8.45;;;;;;;;;;5020090;28;20107;-75
2023/03/23 00:09:47;;;;;;;16.40;12.05;;;;;;;;;;5017742;28;20117;-75
2023/03/23 00:12:15;;;;;;;20.50;14.95;;;;;;;;;;5013857;28;20053;-76
2023/03/23 00:14:41;;;;;;;23.88;17.65;;;;;;;;;;5013482;28;20056;-75
2023/03/23 00:17:09;;;;;;;29.70;21.17;;;;;;;;;;5013354;28;20099;-75
2023/03/23 00:19:45;;;;;;;26.33;19.83;;;;;;;;;;5014168;28;20057;-75
2023/03/23 00:22:11;;;;;;;25.00;18.75;;;;;;;;;;5021825;28;20053;-75
2023/03/23 00:24:37;;;;;;;28.02;20.80;;;;;;;;;;5012493;28;20401;-75
2023/03/23 00:27:03;;;;;;;25.23;19.50;;;;;;;;;;5018853;28;20065;-75
2023/03/23 00:29:29;;;;;;;22.67;17.20;;;;;;;;;;5022536;28;20041;-75
2023/03/23 00:31:56;;;;;;;22.90;18.30;;;;;;;;;;5027297;28;20049;-76
2023/03/23 00:34:24;;;;;;;17.85;14.65;;;;;;;;;;5014349;28;20054;-75
2023/03/23 00:36:53;;;;;;;20.75;16.13;;;;;;;;;;5012081;28;20059;-75
2023/03/23 00:39:19;;;;;;;20.80;15.05;;;;;;;;;;5017769;28;20048;-75
2023/03/23 00:41:46;;;;;;;18.63;15.07;;;;;;;;;;5024719;28;20408;-75
2023/03/23 00:44:23;;;;;;;16.58;14.02;;;;;;;;;;5017576;28;20041;-76
2023/03/23 00:46:52;;;;;;;17.25;13.55;;;;;;;;;;5017629;28;20052;-75
2023/03/23 00:49:19;;;;;;;17.13;14.35;;;;;;;;;;5025579;28;20409;-75
2023/03/23 00:51:46;;;;;;;19.67;14.38;;;;;;;;;;5031487;28;20041;-75
2023/03/23 00:54:12;;;;;;;15.00;13.23;;;;;;;;;;5022152;28;20133;-75
2023/03/23 00:56:39;;;;;;;19.05;15.68;;;;;;;;;;5038426;28;20136;-75
2023/03/23 00:59:05;;;;;;;17.73;14.32;;;;;;;;;;5019549;28;20056;-75
2023/03/23 01:01:31;;;;;;;21.00;15.57;;;;;;;;;;5024881;28;20080;-75
2023/03/23 01:04:03;;;;;;;17.85;14.23;;;;;;;;;;5034855;28;20079;-76
2023/03/23 01:06:32;;;;;;;15.25;13.50;;;;;;;;;;5043021;28;20091;-75
2023/03/23 01:09:00;;;;;;;17.95;14.18;;;;;;;;;;5016607;28;20408;-75
2023/03/23 01:11:26;;;;;;;14.68;12.95;;;;;;;;;;5021461;28;20460;-75
2023/03/23 01:13:53;;;;;;;16.35;13.75;;;;;;;;;;5042586;28;20052;-75
2023/03/23 01:16:19;;;;;;;18.85;14.02;;;;;;;;;;5045355;28;20083;-75
2023/03/23 01:18:45;;;;;;;16.42;13.23;;;;;;;;;;5045747;28;20041;-75
2023/03/23 01:21:13;;;;;;;19.58;15.15;;;;;;;;;;5014207;28;20485;-75
2023/03/23 01:23:39;;;;;;;21.20;16.58;;;;;;;;;;5047490;28;20492;-75
2023/03/23 01:26:06;;;;;;;17.75;15.85;;;;;;;;;;5048813;28;20068;-74
2023/03/23 01:28:33;;;;;;;19.08;15.85;;;;;;;;;;5025913;28;20115;-75
2023/03/23 01:31:03;;;;;;;18.23;16.00;;;;;;;;;;5020984;28;20106;-75
2023/03/23 01:33:30;;;;;;;19.75;15.48;;;;;;;;;;5029506;28;20041;-75
2023/03/23 01:35:56;;;;;;;17.23;14.82;;;;;;;;;;5031743;28;20053;-75
2023/03/23 01:38:22;;;;;;;15.35;11.85;;;;;;;;;;5013612;28;20045;-75
2023/03/23 01:40:48;;;;;;;15.25;11.52;;;;;;;;;;5064961;28;20048;-75
2023/03/23 01:43:15;;;;;;;15.00;12.90;;;;;;;;;;5025778;28;20057;-75
2023/03/23 01:45:42;;;;;;;17.65;12.52;;;;;;;;;;5017144;28;20184;-75
2023/03/23 01:48:35;;;;;;;15.05;11.23;;;;;;;;;;5015881;28;20049;-75
2023/03/23 01:51:08;;;;;;;14.50;10.68;;;;;;;;;;5026948;28;20049;-75
2023/03/23 01:53:40;;;;;;;16.10;10.77;;;;;;;;;;5032089;28;20489;-75
2023/03/23 01:56:07;;;;;;;16.48;9.40;;;;;;;;;;5028882;28;20566;-75
2023/03/23 01:58:35;;;;;;;14.07;9.52;;;;;;;;;;5044044;28;20081;-75
2023/03/23 02:01:04;;;;;;;13.55;9.30;;;;;;;;;;5024512;28;20045;-75
2023/03/23 02:03:31;;;;;;;13.55;8.85;;;;;;;;;;5032921;28;20040;-75
2023/03/23 02:05:58;;;;;;;12.30;7.78;;;;;;;;;;5042123;28;20094;-76
2023/03/23 02:08:25;;;;;;;12.93;6.97;;;;;;;;;;5034935;28;20060;-75
2023/03/23 02:10:51;;;;;;;11.18;6.10;;;;;;;;;;5043278;28;20071;-75
2023/03/23 02:13:17;;;;;;;7.32;4.43;;;;;;;;;;5046586;28;20041;-75
2023/03/23 02:15:46;;;;;;;10.55;5.57;;;;;;;;;;5019227;28;20107;-77
2023/03/23 02:18:18;;;;;;;9.45;4.97;;;;;;;;;;5036237;28;20061;-75
2023/03/23 02:20:55;;;;;;;9.70;3.65;;;;;;;;;;5039602;28;20124;-75
2023/03/23 02:23:28;;;;;;;9.07;3.63;;;;;;;;;;5029334;28;20042;-75
2023/03/23 02:26:17;;;;;;;7.43;3.72;;;;;;;;;;5042968;28;20526;-76
2023/03/23 02:28:43;;;;;;;7.30;3.20;;;;;;;;;;5037582;28;20516;-75
2023/03/23 02:31:13;;;;;;;7.72;3.38;;;;;;;;;;5024953;28;20046;-75
2023/03/23 02:33:45;;;;;;;10.70;3.70;;;;;;;;;;5038574;28;20075;-75
2023/03/23 02:36:14;;;;;;;7.60;3.10;;;;;;;;;;5034602;28;20073;-75
2023/03/23 02:38:50;;;;;;;5.65;3.05;;;;;;;;;;5017466;28;20493;-75
2023/03/23 02:41:18;;;;;;;6.82;2.90;;;;;;;;;;5022182;28;20060;-75
2023/03/23 02:43:46;;;;;;;9.60;3.22;;;;;;;;;;5022844;28;20564;-75
2023/03/23 02:46:13;;;;;;;8.18;3.10;;;;;;;;;;5017252;28;20049;-75
2023/03/23 02:48:40;;;;;;;10.88;3.55;;;;;;;;;;5026528;28;20049;-75
2023/03/23 02:51:07;;;;;;;11.77;3.25;;;;;;;;;;5034307;28;20053;-75
2023/03/23 02:53:35;;;;;;;7.25;3.33;;;;;;;;;;5043926;28;20037;-75
2023/03/23 02:56:02;;;;;;;10.00;3.72;;;;;;;;;;5022505;28;20079;-75
2023/03/23 02:58:29;;;;;;;11.57;3.33;;;;;;;;;;5028811;28;20128;-75
2023/03/23 03:00:56;;;;;;;11.98;3.58;;;;;;;;;;5050319;28;20112;-75
2023/03/23 03:03:23;;;;;;;4.68;2.95;;;;;;;;;;5027700;28;20045;-75
2023/03/23 03:05:50;;;;;;;10.80;3.45;;;;;;;;;;5022026;28;20469;-75
2023/03/23 03:08:17;;;;;;;5.65;3.00;;;;;;;;;;5037285;28;20133;-75
2023/03/23 03:10:53;;;;;;;8.00;3.47;;;;;;;;;;5019796;28;20477;-75
2023/03/23 03:13:31;;;;;;;11.02;3.53;;;;;;;;;;5034907;28;20710;-75
2023/03/23 03:15:57;;;;;;;10.35;4.00;;;;;;;;;;5018761;28;20370;-75
2023/03/23 03:18:28;;;;;;;13.73;3.60;;;;;;;;;;5022583;28;20068;-75
2023/03/23 03:20:55;;;;;;;15.15;4.07;;;;;;;;;;5023514;28;20080;-76
2023/03/23 03:23:23;;;;;;;16.58;4.28;;;;;;;;;;5051028;28;20037;-75
2023/03/23 03:25:49;;;;;;;13.20;3.33;;;;;;;;;;5051876;28;20048;-75
2023/03/23 03:28:21;;;;;;;9.80;3.33;;;;;;;;;;5027269;28;20049;-75
2023/03/23 03:30:48;;;;;;;13.20;2.97;;;;;;;;;;5040903;28;20087;-75
2023/03/23 03:33:14;;;;;;;9.23;3.30;;;;;;;;;;5017153;28;20037;-75
2023/03/23 03:35:41;;;;;;;10.32;4.40;;;;;;;;;;5034990;28;20120;-75
2023/03/23 03:38:08;;;;;;;12.02;3.55;;;;;;;;;;5038967;28;20103;-75
2023/03/23 03:40:34;;;;;;;17.60;4.65;;;;;;;;;;5022825;28;20053;-75
2023/03/23 03:43:00;;;;;;;9.05;3.40;;;;;;;;;;5024306;28;20438;-75
2023/03/23 03:45:26;;;;;;;11.02;3.67;;;;;;;;;;5025204;28;20497;-75
2023/03/23 03:47:52;;;;;;;7.57;3.20;;;;;;;;;;5027927;28;20511;-75
2023/03/23 03:50:19;;;;;;;10.40;3.50;;;;;;;;;;5051638;28;20041;-75
2023/03/23 03:52:45;;;;;;;9.60;3.53;;;;;;;;;;5021607;28;20049;-75
2023/03/23 03:55:12;;;;;;;12.05;3.45;;;;;;;;;;5042873;28;20040;-75
2023/03/23 03:57:38;;;;;;;12.38;3.65;;;;;;;;;;5024178;28;20045;-75
2023/03/23 04:00:15;;;;;;;10.32;3.67;;;;;;;;;;5023439;28;20053;-75
2023/03/23 04:02:47;;;;;;;9.48;3.75;;;;;;;;;;5022991;28;20045;-75
2023/03/23 04:05:13;;;;;;;8.65;3.63;;;;;;;;;;5017819;28;20053;-75
2023/03/23 04:07:41;;;;;;;13.20;3.95;;;;;;;;;;5020570;28;20049;-75
2023/03/23 04:10:07;;;;;;;10.15;3.70;;;;;;;;;;5017468;28;20167;-75
2023/03/23 04:12:34;;;;;;;11.48;4.00;;;;;;;;;;5044325;28;20049;-74
2023/03/23 04:15:00;;;;;;;13.38;4.07;;;;;;;;;;5014904;28;20045;-75
2023/03/23 04:17:26;;;;;;;10.50;3.60;;;;;;;;;;5035208;28;20053;-75
2023/03/23 04:19:53;;;;;;;17.92;4.03;;;;;;;;;;5038510;28;20049;-75
2023/03/23 04:22:19;;;;;;;14.70;4.13;;;;;;;;;;5034010;28;20041;-75
2023/03/23 04:24:45;;;;;;;18.05;4.75;;;;;;;;;;5033110;28;20061;-76
2023/03/23 04:27:13;;;;;;;17.60;4.43;;;;;;;;;;5019971;28;20037;-75
2023/03/23 04:29:39;;;;;;;17.17;4.43;;;;;;;;;;5026224;28;20049;-76
2023/03/23 04:32:06;;;;;;;17.30;4.85;;;;;;;;;;5033169;28;20050;-75
2023/03/23 04:34:32;;;;;;;23.30;5.20;;;;;;;;;;5040419;28;20112;-75
2023/03/23 04:36:58;;;;;;;18.60;4.35;;;;;;;;;;5033934;28;20493;-76
2023/03/23 04:39:28;;;;;;;20.45;4.25;;;;;;;;;;5023174;28;20049;-75
2023/03/23 04:41:54;;;;;;;17.98;4.63;;;;;;;;;;5025823;28;20124;-75
2023/03/23 04:44:21;;;;;;;18.65;4.15;;;;;;;;;;5022477;28;20457;-75
2023/03/23 04:46:49;;;;;;;23.42;5.22;;;;;;;;;;5022600;28;20646;-75
2023/03/23 04:49:21;;;;;;;16.25;4.78;;;;;;;;;;5045167;28;20045;-75
2023/03/23 04:51:48;;;;;;;16.25;4.72;;;;;;;;;;5028764;28;20045;-75
2023/03/23 04:54:14;;;;;;;20.00;4.97;;;;;;;;;;5017812;28;20045;-75
2023/03/23 04:56:41;;;;;;;26.05;5.10;;;;;;;;;;5032551;28;20658;-75
2023/03/23 04:59:07;;;;;;;18.25;4.85;;;;;;;;;;5036615;28;20140;-75
2023/03/23 05:01:36;;;;;;;13.02;4.10;;;;;;;;;;5018443;28;20144;-75
2023/03/23 05:04:02;;;;;;;21.17;4.90;;;;;;;;;;5028782;28;20048;-75
2023/03/23 05:06:29;;;;;;;22.55;4.82;;;;;;;;;;5026042;28;20049;-75
2023/03/23 05:08:55;;;;;;;27.17;5.72;;;;;;;;;;5032688;28;20068;-75
2023/03/23 05:11:21;;;;;;;24.42;5.63;;;;;;;;;;5038876;28;20041;-75
2023/03/23 05:13:47;;;;;;;26.63;6.30;;;;;;;;;;5027933;28;20115;-75
2023/03/23 05:16:13;;;;;;;24.48;5.07;;;;;;;;;;5034555;28;20045;-75
2023/03/23 05:18:39;;;;;;;29.85;6.03;;;;;;;;;;5013283;28;20412;-75
2023/03/23 05:21:05;;;;;;;29.10;7.05;;;;;;;;;;5025686;28;20135;-75
2023/03/23 05:23:33;;;;;;;28.63;5.88;;;;;;;;;;5026430;28;20064;-75
2023/03/23 05:26:03;;;;;;;24.35;6.72;;;;;;;;;;5027469;28;20564;-75
2023/03/23 05:28:30;;;;;;;21.55;5.72;;;;;;;;;;5018570;28;20045;-75
2023/03/23 05:30:56;;;;;;;23.85;5.20;;;;;;;;;;5034233;28;20110;-75
2023/03/23 05:33:23;;;;;;;19.75;5.40;;;;;;;;;;5022503;28;20048;-75
2023/03/23 05:35:50;;;;;;;23.52;5.43;;;;;;;;;;5032990;28;20524;-76
2023/03/23 05:38:16;;;;;;;31.73;6.45;;;;;;;;;;5018093;28;20541;-76
2023/03/23 05:40:42;;;;;;;23.58;4.97;;;;;;;;;;5013774;28;20048;-75
2023/03/23 05:43:09;;;;;;;17.55;4.18;;;;;;;;;;5046618;28;20115;-75
2023/03/23 05:45:35;;;;;;;14.18;3.60;;;;;;;;;;5035384;28;20044;-75
2023/03/23 05:48:01;;;;;;;10.43;3.15;;;;;;;;;;5012011;28;20042;-75
2023/03/23 05:50:28;;;;;;;11.55;3.58;;;;;;;;;;5029174;28;20049;-75
2023/03/23 05:52:55;;;;;;;19.40;4.13;;;;;;;;;;5029400;28;20049;-75
2023/03/23 05:55:21;;;;;;;10.98;3.60;;;;;;;;;;5033052;28;20140;-75
2023/03/23 05:57:47;;;;;;;16.55;3.63;;;;;;;;;;5032454;28;20084;-75
2023/03/23 06:00:20;;;;;;;12.95;3.65;;;;;;;;;;5033695;28;20497;-75
2023/03/23 06:02:48;;;;;;;13.65;3.60;;;;;;;;;;5036557;28;20131;-75
2023/03/23 06:05:15;;;;;;;11.55;4.07;;;;;;;;;;5035779;28;20044;-75
2023/03/23 06:07:41;;;;;;;18.20;5.20;;;;;;;;;;5020694;28;20118;-75
2023/03/23 06:10:08;;;;;;;25.08;5.55;;;;;;;;;;5024859;28;20114;-75
2023/03/23 06:12:35;;;;;;;19.50;5.28;;;;;;;;;;5031247;28;20041;-75
2023/03/23 06:15:01;;;;;;;16.63;4.60;;;;;;;;;;5041462;28;20041;-75
2023/03/23 06:17:27;;;;;;;16.42;5.55;;;;;;;;;;5027381;28;20052;-75
2023/03/23 06:19:53;;;;;;;16.13;4.38;;;;;;;;;;5036478;28;20049;-76
2023/03/23 06:22:20;;;;;;;14.13;3.95;;;;;;;;;;5042722;28;20064;-75
2023/03/23 06:24:47;;;;;;;26.17;10.02;;;;;;;;;;5047585;28;20052;-75
2023/03/23 06:27:13;;;;;;;15.45;4.45;;;;;;;;;;5044311;28;20444;-75
2023/03/23 06:29:40;;;;;;;19.15;4.70;;;;;;;;;;5019457;28;20044;-75
2023/03/23 06:32:07;;;;;;;21.35;5.82;;;;;;;;;;5049523;28;20044;-75
2023/03/23 06:34:33;;;;;;;26.20;6.88;;;;;;;;;;5039661;28;20072;-75
2023/03/23 06:37:00;;;;;;;23.92;6.22;;;;;;;;;;5046695;28;20128;-75
2023/03/23 06:39:26;;;;;;;19.08;6.03;;;;;;;;;;5037299;28;20069;-76
2023/03/23 06:41:52;;;;;;;30.20;7.03;;;;;;;;;;5017598;28;20116;-76
2023/03/23 06:44:18;;;;;;;26.42;6.38;;;;;;;;;;5040459;28;20584;-76
2023/03/23 06:46:44;;;;;;;30.33;6.85;;;;;;;;;;5046373;28;20481;-72
2023/03/23 06:49:10;;;;;;;32.20;7.38;;;;;;;;;;5047483;28;20765;-76
2023/03/23 06:51:37;;;;;;;30.35;7.53;;;;;;;;;;5035790;28;20049;-75
2023/03/23 06:54:03;;;;;;;32.90;6.88;;;;;;;;;;5046017;28;20071;-75
2023/03/23 06:56:29;;;;;;;30.90;7.40;;;;;;;;;;5023882;28;20117;-75
2023/03/23 06:58:56;;;;;;;31.80;8.02;;;;;;;;;;5032881;28;20049;-75
2023/03/23 07:01:22;;;;;;;26.55;6.40;;;;;;;;;;5045190;28;20408;-75
2023/03/23 07:03:48;;;;;;;36.30;8.30;;;;;;;;;;5031923;28;20102;-75
2023/03/23 07:06:15;;;;;;;32.72;6.65;;;;;;;;;;5020239;28;20045;-75
2023/03/23 07:08:42;;;;;;;36.78;7.65;;;;;;;;;;5021430;28;20042;-75
2023/03/23 07:11:09;;;;;;;30.95;7.95;;;;;;;;;;5035585;28;20060;-75
2023/03/23 07:13:36;;;;;;;22.17;6.05;;;;;;;;;;5040302;28;20057;-75
2023/03/23 07:16:04;;;;;;;26.42;7.15;;;;;;;;;;5039325;28;20156;-75
2023/03/23 07:18:30;;;;;;;34.63;7.53;;;;;;;;;;5032978;28;20102;-75
2023/03/23 07:20:56;;;;;;;32.20;6.85;;;;;;;;;;5016756;28;20121;-75
2023/03/23 07:23:22;;;;;;;30.75;7.15;;;;;;;;;;5016428;28;20159;-76
2023/03/23 07:25:49;;;;;;;30.70;7.05;;;;;;;;;;5021565;28;20080;-75
2023/03/23 07:28:16;;;;;;;29.20;7.28;;;;;;;;;;5018789;28;20405;-76
2023/03/23 07:30:42;;;;;;;27.33;6.95;;;;;;;;;;5033803;28;20040;-75
2023/03/23 07:33:08;;;;;;;32.38;7.68;;;;;;;;;;5018101;28;20049;-75
2023/03/23 07:35:35;;;;;;;30.98;7.10;;;;;;;;;;5021055;28;20052;-75
2023/03/23 07:38:02;;;;;;;30.42;8.25;;;;;;;;;;5016596;28;20049;-75
2023/03/23 07:40:28;;;;;;;28.58;6.80;;;;;;;;;;5026601;28;20083;-75
2023/03/23 07:42:55;;;;;;;27.95;6.88;;;;;;;;;;5040446;28;20038;-75
2023/03/23 07:45:22;;;;;;;27.38;6.10;;;;;;;;;;5038093;28;20045;-75
2023/03/23 07:47:48;;;;;;;34.60;6.40;;;;;;;;;;5024891;28;20079;-75
2023/03/23 07:50:14;;;;;;;28.30;6.75;;;;;;;;;;5016792;28;20073;-75
2023/03/23 07:52:44;;;;;;;28.60;7.10;;;;;;;;;;5023965;28;20055;-75
2023/03/23 07:55:17;;;;;;;23.38;5.80;;;;;;;;;;5032694;28;20049;-76
2023/03/23 07:57:43;;;;;;;27.15;6.63;;;;;;;;;;5044218;28;20068;-74
2023/03/23 08:00:15;;;;;;;24.00;6.53;;;;;;;;;;5018253;28;20489;-75
2023/03/23 08:02:41;;;;;;;32.70;7.45;;;;;;;;;;5013559;28;20048;-74
2023/03/23 08:05:08;;;;;;;25.88;6.78;;;;;;;;;;5015398;28;20060;-75
2023/03/23 08:07:34;;;;;;;22.83;6.20;;;;;;;;;;5022898;28;20480;-75
2023/03/23 08:10:00;;;;;;;28.25;6.30;;;;;;;;;;5021243;28;20041;-75
2023/03/23 08:12:27;;;;;;;30.27;6.82;;;;;;;;;;5022965;28;20045;-75
2023/03/23 08:14:53;;;;;;;30.70;7.97;;;;;;;;;;5034777;28;20143;-75
2023/03/23 08:17:20;;;;;;;32.88;7.25;;;;;;;;;;5034852;28;20088;-75
2023/03/23 08:19:46;;;;;;;28.00;6.47;;;;;;;;;;5021548;28;20411;-75
2023/03/23 08:22:13;;;;;;;26.70;7.05;;;;;;;;;;5023212;28;20056;-75
2023/03/23 08:24:39;;;;;;;31.70;7.00;;;;;;;;;;5033909;28;20095;-75
2023/03/23 08:27:06;;;;;;;26.17;7.18;;;;;;;;;;5020718;28;20099;-75
2023/03/23 08:29:33;;;;;;;37.28;8.23;;;;;;;;;;5021758;28;20148;-75
2023/03/23 08:31:59;;;;;;;26.63;7.25;;;;;;;;;;5040406;28;20052;-75
2023/03/23 08:34:25;;;;;;;33.08;8.95;;;;;;;;;;5021775;28;20397;-75
2023/03/23 08:36:51;;;;;;;32.13;7.47;;;;;;;;;;5026250;28;20041;-75
2023/03/23 08:39:18;;;;;;;28.48;7.10;;;;;;;;;;5039491;28;20048;-75
2023/03/23 08:41:44;;;;;;;29.40;6.60;;;;;;;;;;5016081;28;20045;-74
2023/03/23 08:44:10;;;;;;;32.33;7.90;;;;;;;;;;5031495;28;20041;-75
2023/03/23 08:46:36;;;;;;;25.00;7.00;;;;;;;;;;5018434;28;20084;-75
2023/03/23 08:49:02;;;;;;;26.85;6.63;;;;;;;;;;5031812;28;20049;-75
2023/03/23 08:51:28;;;;;;;28.40;5.88;;;;;;;;;;5021598;28;20508;-75
2023/03/23 08:53:55;;;;;;;32.78;8.00;;;;;;;;;;5036731;28;20033;-75
2023/03/23 08:56:22;;;;;;;29.73;8.32;;;;;;;;;;5028688;28;20053;-76
2023/03/23 08:58:48;;;;;;;32.20;7.45;;;;;;;;;;5033387;28;20096;-75
2023/03/23 09:01:15;;;;;;;26.80;6.45;;;;;;;;;;5014009;28;20448;-75
2023/03/23 09:03:41;;;;;;;30.10;7.22;;;;;;;;;;5013478;28;20136;-75
2023/03/23 09:06:08;;;;;;;34.60;8.13;;;;;;;;;;5016536;28;20044;-75
2023/03/23 09:08:38;;;;;;;31.80;7.25;;;;;;;;;;5014074;28;20045;-75
2023/03/23 09:11:06;;;;;;;30.10;8.18;;;;;;;;;;5013511;28;20096;-75
2023/03/23 09:13:32;;;;;;;32.92;8.27;;;;;;;;;;5033375;28;20093;-75
2023/03/23 09:15:58;;;;;;;38.67;7.35;;;;;;;;;;5023093;28;20555;-75
2023/03/23 09:18:25;;;;;;;30.05;7.60;;;;;;;;;;5038388;28;20045;-75
2023/03/23 09:20:52;;;;;;;32.03;7.65;;;;;;;;;;5015440;28;20050;-75
2023/03/23 09:23:18;;;;;;;35.38;8.48;;;;;;;;;;5032009;28;20037;-75
2023/03/23 09:25:44;;;;;;;33.38;7.75;;;;;;;;;;5025751;28;20045;-75
2023/03/23 09:28:10;;;;;;;29.20;7.25;;;;;;;;;;5016068;28;20384;-75
2023/03/23 09:30:37;;;;;;;30.08;7.28;;;;;;;;;;5025528;28;20103;-75
2023/03/23 09:33:04;;;;;;;33.10;6.90;;;;;;;;;;5015079;28;20049;-75
2023/03/23 09:35:34;;;;;;;28.77;6.95;;;;;;;;;;5016928;28;20477;-75
2023/03/23 09:38:00;;;;;;;38.63;7.55;;;;;;;;;;5036752;28;20050;-75
2023/03/23 09:40:30;;;;;;;26.33;6.70;;;;;;;;;;5019405;28;20095;-75
2023/03/23 09:43:18;;;;;;;28.63;7.40;;;;;;;;;;5031658;28;20542;-75
2023/03/23 09:45:54;;;;;;;32.00;7.05;;;;;;;;;;5031371;28;20065;-75
2023/03/23 09:48:38;;;;;;;31.83;7.20;;;;;;;;;;5016311;28;20173;-75
2023/03/23 09:51:23;;;;;;;25.25;7.30;;;;;;;;;;5016580;28;20042;-75
2023/03/23 09:53:52;;;;;;;36.17;8.35;;;;;;;;;;5028308;28;20088;-75
2023/03/23 09:56:18;;;;;;;35.78;7.32;;;;;;;;;;5014952;28;20517;-75
2023/03/23 09:59:02;;;;;;;30.80;7.15;;;;;;;;;;5031617;28;20050;-75
2023/03/23 10:01:28;;;;;;;33.55;7.03;;;;;;;;;;5034805;28;20059;-75
2023/03/23 10:04:00;;;;;;;29.65;7.63;;;;;;;;;;5018391;28;20678;-75
2023/03/23 10:06:26;;;;;;;25.13;6.55;;;;;;;;;;5015323;28;20159;-75
2023/03/23 10:08:54;;;;;;;34.00;6.80;;;;;;;;;;5013950;28;20049;-75
2023/03/23 10:11:34;;;;;;;33.33;6.53;;;;;;;;;;5015030;28;20057;-75
2023/03/23 10:14:12;;;;;;;26.13;6.15;;;;;;;;;;5016483;28;20041;-75
2023/03/23 10:16:41;;;;;;;30.08;7.38;;;;;;;;;;5044613;28;20037;-75
2023/03/23 10:19:20;;;;;;;26.55;6.38;;;;;;;;;;5022937;28;20447;-75
2023/03/23 10:21:58;;;;;;;36.40;6.85;;;;;;;;;;5023564;28;20049;-75
2023/03/23 10:24:29;;;;;;;31.80;7.38;;;;;;;;;;5022931;28;20048;-75
2023/03/23 10:27:04;;;;;;;29.02;7.15;;;;;;;;;;5017722;28;20083;-75
2023/03/23 10:29:32;;;;;;;22.80;5.75;;;;;;;;;;5035557;28;20041;-75
2023/03/23 10:32:13;;;;;;;30.13;6.38;;;;;;;;;;5021446;28;20077;-75
2023/03/23 10:34:46;;;;;;;28.20;6.13;;;;;;;;;;5034870;28;20102;-74
2023/03/23 10:37:14;;;;;;;21.20;6.18;;;;;;;;;;5037913;28;20056;-74
2023/03/23 10:39:49;;;;;;;21.45;5.63;;;;;;;;;;5025547;28;20128;-75
2023/03/23 10:42:29;;;;;;;26.95;5.57;;;;;;;;;;5027390;28;20098;-75
2023/03/23 10:44:56;;;;;;;24.80;6.53;;;;;;;;;;5021602;28;20045;-75
2023/03/23 10:47:24;;;;;;;21.88;5.18;;;;;;;;;;5019703;28;20400;-75
2023/03/23 10:49:53;;;;;;;22.45;5.68;;;;;;;;;;5033873;28;20504;-74
2023/03/23 10:52:33;;;;;;;22.40;5.88;;;;;;;;;;5042502;28;20056;-75
2023/03/23 10:54:59;;;;;;;21.27;5.63;;;;;;;;;;5027806;28;20081;-74
2023/03/23 10:57:28;;;;;;;27.98;5.90;;;;;;;;;;5017644;28;20745;-75
2023/03/23 10:59:58;;;;;;;21.90;5.90;;;;;;;;;;5020681;28;20049;-75
2023/03/23 11:02:25;;;;;;;24.02;6.63;;;;;;;;;;5026375;28;20393;-74
2023/03/23 11:04:59;;;;;;;18.60;5.05;;;;;;;;;;5016431;28;20044;-75
2023/03/23 11:07:28;;;;;;;20.67;5.95;;;;;;;;;;5041215;28;20135;-75
2023/03/23 11:09:55;;;;;;;20.58;4.65;;;;;;;;;;5037128;28;20043;-75
2023/03/23 11:12:22;;;;;;;23.40;5.47;;;;;;;;;;5022789;28;20080;-75
2023/03/23 11:14:49;;;;;;;23.50;4.95;;;;;;;;;;5015467;28;20123;-75
2023/03/23 11:17:26;;;;;;;20.83;5.10;;;;;;;;;;5016384;28;20473;-74
2023/03/23 11:19:55;;;;;;;24.13;5.70;;;;;;;;;;5039268;28;20052;-75
2023/03/23 11:22:26;;;;;;;23.55;6.07;;;;;;;;;;5016806;28;20049;-75
2023/03/23 11:24:54;;;;;;;18.70;5.38;;;;;;;;;;5042037;28;20129;-75
2023/03/23 11:27:21;;;;;;;20.98;4.55;;;;;;;;;;5036082;28;20037;-75
2023/03/23 11:29:53;;;;;;;21.50;5.18;;;;;;;;;;5035437;28;20038;-75
2023/03/23 11:32:19;;;;;;;18.10;4.70;;;;;;;;;;5014831;28;20124;-74
2023/03/23 11:34:47;;;;;;;24.25;6.05;;;;;;;;;;5026817;28;20037;-74
2023/03/23 11:37:36;;;;;;;17.83;4.90;;;;;;;;;;5033775;28;20048;-75
2023/03/23 11:40:08;;;;;;;24.05;5.22;;;;;;;;;;5013071;28;20098;-74
2023/03/23 11:42:36;;;;;;;22.90;5.40;;;;;;;;;;5018973;28;20052;-75
2023/03/23 11:45:17;;;;;;;24.40;5.72;;;;;;;;;;5040076;28;20052;-74
2023/03/23 11:48:02;;;;;;;18.23;4.72;;;;;;;;;;5026687;28;20500;-75
2023/03/23 11:50:31;;;;;;;16.42;5.10;;;;;;;;;;5030214;28;20668;-75
2023/03/23 11:53:20;;;;;;;15.70;4.90;;;;;;;;;;5016577;28;20099;-74
2023/03/23 11:55:53;;;;;;;21.50;5.22;;;;;;;;;;5021138;28;20080;-74
2023/03/23 11:58:20;;;;;;;24.35;5.63;;;;;;;;;;5015407;28;20057;-74
2023/03/23 12:00:57;;;;;;;21.10;5.38;;;;;;;;;;5018948;28;20045;-75
2023/03/23 12:03:46;;;;;;;22.33;5.05;;;;;;;;;;5031543;28;20497;-75
2023/03/23 12:06:20;;;;;;;15.18;4.53;;;;;;;;;;5030821;28;20042;-75
2023/03/23 12:08:57;;;;;;;20.40;4.53;;;;;;;;;;5019752;28;20445;-75
2023/03/23 12:11:26;;;;;;;21.65;6.22;;;;;;;;;;5043165;28;20092;-75
2023/03/23 12:14:02;;;;;;;20.23;5.07;;;;;;;;;;5021780;28;20136;-75
2023/03/23 12:16:33;;;;;;;21.52;5.60;;;;;;;;;;5033527;28;20492;-75
2023/03/23 12:19:10;;;;;;;17.67;5.60;;;;;;;;;;5035244;28;20049;-74
2023/03/23 12:21:50;;;;;;;19.40;6.20;;;;;;;;;;5034041;28;20123;-75
2023/03/23 12:24:32;;;;;;;23.67;5.28;;;;;;;;;;5020756;28;20394;-75
2023/03/23 12:27:07;;;;;;;19.80;5.05;;;;;;;;;;5027854;28;20045;-75
2023/03/23 12:29:39;;;;;;;27.92;5.45;;;;;;;;;;5027042;28;20030;-75
2023/03/23 12:32:24;;;;;;;19.98;5.15;;;;;;;;;;5034512;28;20092;-75
2023/03/23 12:34:53;;;;;;;21.58;6.00;;;;;;;;;;5031705;28;20469;-74
2023/03/23 12:37:31;;;;;;;30.35;6.20;;;;;;;;;;5036160;28;20044;-73
2023/03/23 12:40:23;;;;;;;23.55;5.55;;;;;;;;;;5022867;28;20075;-75
2023/03/23 12:42:55;;;;;;;24.13;6.20;;;;;;;;;;5021499;28;20469;-74
2023/03/23 12:45:24;;;;;;;22.40;6.82;;;;;;;;;;5016021;28;20110;-75
2023/03/23 12:47:54;;;;;;;22.85;6.03;;;;;;;;;;5022882;28;20065;-74
2023/03/23 12:50:20;;;;;;;23.75;5.18;;;;;;;;;;5027075;28;20053;-74
2023/03/23 12:52:58;;;;;;;24.65;5.90;;;;;;;;;;5020046;28;20098;-74
2023/03/23 12:55:25;;;;;;;22.25;6.10;;;;;;;;;;5031526;28;20107;-75
2023/03/23 12:57:57;;;;;;;24.98;6.18;;;;;;;;;;5020607;28;20112;-75
2023/03/23 13:00:34;;;;;;;16.33;4.55;;;;;;;;;;5044703;28;20067;-74
2023/03/23 13:03:12;;;;;;;21.77;5.25;;;;;;;;;;5018263;28;20065;-75
2023/03/23 13:05:57;;;;;;;21.45;4.65;;;;;;;;;;5019906;28;20041;-75
2023/03/23 13:08:31;;;;;;;28.05;6.25;;;;;;;;;;5024728;28;20048;-75
2023/03/23 13:10:59;;;;;;;26.08;5.50;;;;;;;;;;5014376;28;20500;-75
2023/03/23 13:13:27;;;;;;;16.55;4.93;;;;;;;;;;5019970;28;21467;-75
2023/03/23 13:16:12;;;;;;;21.25;5.57;;;;;;;;;;5020724;28;20056;-75
2023/03/23 13:18:38;;;;;;;16.38;5.03;;;;;;;;;;5038807;28;20488;-75
2023/03/23 13:21:31;;;;;;;22.35;5.30;;;;;;;;;;5021233;28;20124;-74
2023/03/23 13:23:59;;;;;;;25.48;4.78;;;;;;;;;;5010903;28;20455;-75
2023/03/23 13:26:27;;;;;;;18.05;4.65;;;;;;;;;;5023470;28;20661;-75
2023/03/23 13:29:08;;;;;;;14.77;3.97;;;;;;;;;;5030703;28;20140;-75
2023/03/23 13:31:39;;;;;;;21.08;4.97;;;;;;;;;;5035811;28;20073;-75
2023/03/23 13:34:25;;;;;;;16.92;4.68;;;;;;;;;;5023512;28;20477;-74
2023/03/23 13:36:58;;;;;;;18.00;5.43;;;;;;;;;;5022351;28;20124;-75
2023/03/23 13:39:26;;;;;;;13.77;4.68;;;;;;;;;;5026239;28;20083;-74
2023/03/23 13:42:03;;;;;;;13.57;4.70;;;;;;;;;;5032606;28;20120;-75
2023/03/23 13:44:42;;;;;;;20.70;5.15;;;;;;;;;;5036556;28;20049;-75
2023/03/23 13:47:16;;;;;;;18.23;5.13;;;;;;;;;;5019856;28;20045;-74
2023/03/23 13:49:47;;;;;;;20.95;4.55;;;;;;;;;;5037629;28;20435;-75
2023/03/23 13:52:24;;;;;;;13.20;4.63;;;;;;;;;;5027091;28;20076;-74
2023/03/23 13:54:51;;;;;;;20.92;4.55;;;;;;;;;;5025182;28;20052;-75
2023/03/23 13:57:37;;;;;;;18.05;5.10;;;;;;;;;;5021650;28;20060;-75
2023/03/23 14:00:26;;;;;;;19.50;6.57;;;;;;;;;;5025905;28;20464;-75
2023/03/23 14:02:59;;;;;;;18.83;5.88;;;;;;;;;;5034074;28;20092;-75
2023/03/23 14:05:25;;;;;;;16.07;5.10;;;;;;;;;;5026814;28;20060;-75
2023/03/23 14:08:11;;;;;;;15.23;4.53;;;;;;;;;;5028648;28;20037;-75
2023/03/23 14:10:37;;;;;;;14.02;4.75;;;;;;;;;;5027848;28;20051;-75
2023/03/23 14:13:05;;;;;;;13.38;4.68;;;;;;;;;;5038112;28;20049;-76
2023/03/23 14:15:32;;;;;;;14.75;4.55;;;;;;;;;;5026701;28;20053;-75
2023/03/23 14:18:01;;;;;;;17.60;4.20;;;;;;;;;;5026710;28;20124;-76
2023/03/23 14:20:32;;;;;;;14.18;4.70;;;;;;;;;;5025287;28;20127;-75
2023/03/23 14:22:58;;;;;;;11.07;4.63;;;;;;;;;;5039444;28;20045;-75
2023/03/23 14:25:27;;;;;;;13.88;4.47;;;;;;;;;;5027658;28;20049;-75
2023/03/23 14:27:53;;;;;;;14.98;4.85;;;;;;;;;;5035544;28;20048;-75
2023/03/23 14:30:20;;;;;;;17.88;5.00;;;;;;;;;;5021281;28;20492;-76
2023/03/23 14:32:48;;;;;;;13.02;4.28;;;;;;;;;;5039986;28;20048;-75
2023/03/23 14:35:24;;;;;;;12.88;4.65;;;;;;;;;;5035878;28;20037;-75
2023/03/23 14:37:50;;;;;;;11.57;4.10;;;;;;;;;;5042494;28;20119;-75
2023/03/23 14:40:17;;;;;;;13.02;3.58;;;;;;;;;;5023370;28;20404;-75
2023/03/23 14:42:43;;;;;;;13.88;4.65;;;;;;;;;;5040182;28;20473;-75